Time;durP1;ratioP1;P1;durP2;ratioP2;P2;SDS_P1;SDS_P2;PMS_P1;PMS_P2;Temp;Humidity;BMP_temperature;BMP_pressure;BME280_temperature;BME280_humidity;BME280_pressure;Samples;Min_cycle;Max_cycle;Signal;HPM_P1;HPM_P2
2022/01/04 00:02:14;;;;;;;32.65;16.27;;;;;;;5.01;85.72;99641.47;1718864;82;21201;-82
2022/01/04 00:04:42;;;;;;;35.83;14.93;;;;;;;5.02;85.74;99641.52;1719063;82;21114;-82
2022/01/04 00:07:09;;;;;;;33.53;14.20;;;;;;;5.02;85.77;99642.82;1718828;82;21789;-81
2022/01/04 00:09:40;;;;;;;25.80;14.20;;;;;;;5.08;86.00;99651.25;1719203;83;22067;-81
2022/01/04 00:14:50;;;;;;;33.28;14.68;;;;;;;5.31;86.34;99641.89;1718903;83;21191;-82
2022/01/04 00:17:17;;;;;;;21.93;9.88;;;;;;;5.45;86.41;99645.78;1719285;83;21102;-82
2022/01/04 00:19:43;;;;;;;28.75;9.18;;;;;;;5.59;86.41;99639.62;1719211;82;21754;-81
2022/01/04 00:22:10;;;;;;;21.50;8.30;;;;;;;5.72;86.32;99644.76;1719143;83;21129;-81
2022/01/04 00:24:37;;;;;;;29.98;12.63;;;;;;;5.82;86.20;99646.36;1718811;83;21078;-81
2022/01/04 00:27:06;;;;;;;29.12;13.35;;;;;;;5.92;86.15;99637.45;1716760;83;21154;-81
2022/01/04 00:29:32;;;;;;;31.20;13.93;;;;;;;6.04;86.05;99641.70;1716993;82;21094;-81
2022/01/04 00:31:59;;;;;;;28.02;13.75;;;;;;;6.13;85.93;99641.06;1716717;82;21755;-81
2022/01/04 00:34:28;;;;;;;20.90;8.63;;;;;;;6.21;85.85;99638.20;1697923;83;22321;-81
2022/01/04 00:36:54;;;;;;;19.92;9.78;;;;;;;6.29;85.71;99636.68;1716770;82;21082;-81
2022/01/04 00:39:24;;;;;;;19.37;7.65;;;;;;;6.37;85.57;99641.66;1716481;82;21106;-81
2022/01/04 00:41:51;;;;;;;17.62;7.03;;;;;;;6.45;85.45;99632.69;1716788;82;21039;-82
2022/01/04 00:44:19;;;;;;;20.70;7.22;;;;;;;6.49;85.30;99627.98;1716324;81;21774;-81
2022/01/04 00:46:46;;;;;;;15.38;5.55;;;;;;;6.56;85.23;99623.80;1716732;82;21130;-81
2022/01/04 00:49:17;;;;;;;17.32;6.62;;;;;;;6.60;85.09;99626.94;1716813;82;21179;-82
2022/01/04 00:51:49;;;;;;;15.32;5.72;;;;;;;6.66;84.98;99628.80;1716057;82;21078;-82
2022/01/04 00:54:22;;;;;;;12.07;5.95;;;;;;;6.70;84.89;99629.33;1716546;83;21118;-81
2022/01/04 00:56:48;;;;;;;16.15;5.30;;;;;;;6.74;84.82;99625.96;1716656;81;21786;-83
2022/01/04 00:59:15;;;;;;;13.83;5.50;;;;;;;6.75;84.62;99626.40;1716667;83;21118;-83
2022/01/04 01:01:42;;;;;;;12.50;5.42;;;;;;;6.76;84.54;99625.13;1716845;83;21119;-82
2022/01/04 01:04:11;;;;;;;12.88;6.03;;;;;;;6.76;84.50;99621.20;1716780;83;21178;-81
2022/01/04 01:06:37;;;;;;;15.90;6.22;;;;;;;6.77;84.45;99619.03;1716530;82;21126;-81
2022/01/04 01:09:07;;;;;;;17.20;5.62;;;;;;;6.79;84.43;99615.16;1716323;82;21779;-80
2022/01/04 01:11:34;;;;;;;14.78;5.45;;;;;;;6.84;84.36;99611.34;1716748;83;21439;-81
2022/01/04 01:14:03;;;;;;;13.62;5.70;;;;;;;6.86;84.23;99610.95;1716338;82;21087;-81
2022/01/04 01:16:32;;;;;;;14.45;5.28;;;;;;;6.85;84.18;99605.25;1716742;83;21031;-81
2022/01/04 01:18:58;;;;;;;16.90;6.80;;;;;;;6.87;84.18;99607.47;1715450;81;21687;-79
2022/01/04 01:21:25;;;;;;;12.58;4.92;;;;;;;6.88;84.10;99603.58;1716683;82;21707;-80
2022/01/04 01:23:53;;;;;;;15.10;5.80;;;;;;;6.89;83.91;99603.14;1696705;83;21755;-81
2022/01/04 01:26:25;;;;;;;17.50;5.80;;;;;;;6.80;83.49;99590.78;1740176;81;21062;-82
2022/01/04 01:28:52;;;;;;;14.03;5.83;;;;;;;6.65;83.26;99596.55;1718870;82;21170;-82
2022/01/04 01:31:18;;;;;;;17.75;7.40;;;;;;;6.54;83.28;99598.05;1719183;82;21615;-82
2022/01/04 01:33:45;;;;;;;20.23;10.05;;;;;;;6.16;83.16;99549.27;1719293;83;21753;-82
2022/01/04 01:36:12;;;;;;;27.65;12.90;;;;;;;6.29;83.17;99592.66;1719076;83;21374;-83
2022/01/04 01:38:42;;;;;;;41.15;19.73;;;;;;;6.18;83.22;99591.98;1719524;83;21091;-83
2022/01/04 01:41:07;;;;;;;31.80;15.32;;;;;;;6.12;83.39;99592.25;1718796;82;21118;-82
2022/01/04 01:43:34;;;;;;;16.80;8.55;;;;;;;6.08;83.55;99593.03;1719448;83;21529;-81
2022/01/04 01:46:01;;;;;;;17.77;7.83;;;;;;;6.04;83.58;99585.54;1719133;82;22653;-81
2022/01/04 01:48:30;;;;;;;17.20;7.28;;;;;;;6.01;83.65;99578.95;1719056;82;21118;-81
2022/01/04 01:50:56;;;;;;;19.82;7.10;;;;;;;5.94;83.56;99573.95;1719163;81;22130;-82
2022/01/04 01:53:23;;;;;;;21.60;9.30;;;;;;;5.88;83.58;99575.55;1719207;82;21565;-81
2022/01/04 01:55:49;;;;;;;21.62;9.08;;;;;;;5.81;83.59;99567.97;1719576;83;21094;-81
2022/01/04 01:58:16;;;;;;;25.95;12.30;;;;;;;5.74;83.52;99571.27;1719463;82;21594;-81
2022/01/04 02:00:43;;;;;;;18.62;9.28;;;;;;;5.62;83.53;99559.66;1719531;82;21098;-81
2022/01/04 02:03:10;;;;;;;31.95;15.45;;;;;;;5.54;83.62;99559.91;1719198;82;21094;-82
2022/01/04 02:05:36;;;;;;;22.90;10.68;;;;;;;5.49;83.75;99554.97;1719331;83;21094;-82
2022/01/04 02:08:04;;;;;;;17.30;6.53;;;;;;;5.47;83.92;99553.18;1719487;82;21118;-82
2022/01/04 02:10:31;;;;;;;18.25;7.67;;;;;;;5.45;84.11;99546.61;1719373;83;21769;-81
2022/01/04 02:13:01;;;;;;;17.27;8.53;;;;;;;5.49;84.35;99552.36;1719268;83;21166;-82
2022/01/04 02:15:29;;;;;;;20.02;8.38;;;;;;;5.54;84.43;99549.46;1719057;82;21078;-82
2022/01/04 02:17:56;;;;;;;17.77;8.00;;;;;;;5.47;84.31;99531.88;1719311;83;21114;-82
2022/01/04 02:20:23;;;;;;;20.65;12.53;;;;;;;5.55;84.33;99549.91;1719392;83;21138;-82
2022/01/04 02:22:55;;;;;;;13.80;7.20;;;;;;;5.54;84.21;99552.50;1690655;83;21166;-82
2022/01/04 02:25:22;;;;;;;15.88;6.55;;;;;;;5.50;84.15;99551.53;1717418;83;21588;-82
2022/01/04 02:27:51;;;;;;;15.83;6.25;;;;;;;5.47;84.20;99546.22;1709334;83;21125;-82
2022/01/04 02:30:19;;;;;;;14.53;7.33;;;;;;;5.46;84.37;99543.14;1709624;83;21556;-82
2022/01/04 02:32:47;;;;;;;11.12;5.03;;;;;;;5.49;84.54;99553.67;1709335;83;21102;-81
2022/01/04 02:35:15;;;;;;;14.65;5.30;;;;;;;5.56;84.76;99550.38;1709187;83;21831;-82
2022/01/04 02:37:42;;;;;;;15.28;5.62;;;;;;;5.60;84.67;99551.34;1709253;82;21313;-81
2022/01/04 02:40:10;;;;;;;13.40;6.00;;;;;;;5.63;84.71;99545.78;1709201;83;21095;-84
2022/01/04 02:42:37;;;;;;;11.25;5.17;;;;;;;5.70;84.78;99538.97;1709306;83;21778;-82
2022/01/04 02:45:05;;;;;;;14.58;6.00;;;;;;;5.79;84.90;99537.02;1709242;82;21189;-81
2022/01/04 02:47:31;;;;;;;17.10;6.87;;;;;;;5.89;84.89;99528.55;1709141;82;21749;-81
2022/01/04 02:49:58;;;;;;;17.82;8.23;;;;;;;5.96;84.80;99522.67;1709116;83;21162;-81
2022/01/04 02:52:25;;;;;;;20.50;6.33;;;;;;;5.94;84.48;99521.72;1709282;82;21075;-81
2022/01/04 02:54:51;;;;;;;17.90;6.55;;;;;;;5.96;84.43;99521.36;1709147;83;21146;-80
2022/01/04 02:57:18;;;;;;;13.15;6.47;;;;;;;5.95;84.33;99515.70;1709222;83;21145;-80
2022/01/04 02:59:45;;;;;;;13.88;7.03;;;;;;;5.91;84.06;99517.75;1709154;82;22591;-81
2022/01/04 03:02:14;;;;;;;19.62;6.75;;;;;;;5.84;84.03;99524.97;1708995;82;21535;-81
2022/01/04 03:04:43;;;;;;;17.73;6.47;;;;;;;5.85;84.32;99527.59;1709077;82;21079;-81
2022/01/04 03:07:10;;;;;;;12.37;4.85;;;;;;;5.90;84.47;99520.31;1709052;82;21288;-80
2022/01/04 03:09:40;;;;;;;10.00;4.47;;;;;;;5.94;84.48;99509.97;1709201;83;21122;-83
2022/01/04 03:12:07;;;;;;;11.28;4.58;;;;;;;5.97;84.45;99513.13;1709137;82;21720;-82
2022/01/04 03:14:35;;;;;;;14.68;4.78;;;;;;;6.00;84.36;99505.34;1707374;83;21514;-83
2022/01/04 03:17:03;;;;;;;12.40;4.72;;;;;;;6.01;84.35;99504.51;1709353;82;21580;-81
2022/01/04 03:19:31;;;;;;;18.55;5.03;;;;;;;5.99;84.16;99501.86;1737249;82;21043;-82
2022/01/04 03:21:58;;;;;;;10.18;4.50;;;;;;;5.95;84.06;99496.47;1709292;83;21151;-82
2022/01/04 03:24:25;;;;;;;16.27;5.45;;;;;;;5.93;84.03;99491.64;1705281;82;21793;-82
2022/01/04 03:26:52;;;;;;;13.85;4.50;;;;;;;5.91;84.03;99490.33;1719954;82;21093;-82
2022/01/04 03:29:19;;;;;;;14.40;6.05;;;;;;;5.87;83.87;99491.50;1701699;83;21144;-81
2022/01/04 03:31:46;;;;;;;20.05;6.62;;;;;;;5.79;83.74;99488.28;1701637;83;21225;-81
2022/01/04 03:34:15;;;;;;;17.50;5.03;;;;;;;5.70;83.66;99486.75;1701373;83;21077;-82
2022/01/04 03:36:42;;;;;;;16.70;5.53;;;;;;;5.61;83.70;99483.91;1701144;83;21768;-81
2022/01/04 03:39:10;;;;;;;11.93;5.03;;;;;;;5.56;83.78;99486.43;1701211;83;21049;-82
2022/01/04 03:41:40;;;;;;;12.28;5.60;;;;;;;5.52;83.96;99488.91;1701303;83;21057;-82
2022/01/04 03:44:09;;;;;;;16.90;6.50;;;;;;;5.53;84.22;99483.73;1701238;83;21121;-80
2022/01/04 03:46:36;;;;;;;15.18;6.20;;;;;;;5.52;84.20;99483.29;1701286;83;21007;-81
2022/01/04 03:49:07;;;;;;;13.72;6.37;;;;;;;5.49;84.13;99481.89;1701326;83;21852;-81
2022/01/04 03:51:32;;;;;;;14.87;6.45;;;;;;;5.45;84.13;99477.45;1701041;83;21058;-81
2022/01/04 03:53:59;;;;;;;17.87;5.62;;;;;;;5.40;84.19;99471.22;1701239;83;21577;-81
2022/01/04 03:56:26;;;;;;;13.75;5.92;;;;;;;5.36;84.23;99466.78;1701216;84;21067;-81
2022/01/04 03:58:53;;;;;;;18.07;6.92;;;;;;;5.36;84.42;99470.69;1701275;83;21069;-81
2022/01/04 04:01:19;;;;;;;19.55;6.00;;;;;;;5.37;84.64;99469.86;1701233;84;21886;-82
2022/01/04 04:03:48;;;;;;;11.50;6.17;;;;;;;5.37;84.86;99458.13;1701046;83;21089;-81
2022/01/04 04:06:15;;;;;;;15.23;5.67;;;;;;;5.54;85.00;99462.45;1701050;83;21065;-80
2022/01/04 04:08:42;;;;;;;13.43;5.78;;;;;;;5.63;85.01;99470.47;1701331;83;21144;-80
2022/01/04 04:11:08;;;;;;;20.62;6.42;;;;;;;5.71;85.02;99470.26;1701176;83;21614;-80
2022/01/04 04:13:38;;;;;;;20.92;6.40;;;;;;;5.77;84.95;99475.62;1712652;83;21760;-80
2022/01/04 04:16:05;;;;;;;16.27;6.03;;;;;;;5.83;84.90;99473.14;1701026;83;21623;-81
2022/01/04 04:18:32;;;;;;;14.38;6.33;;;;;;;5.87;84.81;99464.95;1701270;83;21061;-80
2022/01/04 04:20:59;;;;;;;13.70;6.17;;;;;;;5.91;84.71;99473.75;1701287;83;21073;-80
2022/01/04 04:23:25;;;;;;;14.43;6.25;;;;;;;5.89;84.60;99475.02;1701127;83;21070;-80
2022/01/04 04:25:52;;;;;;;14.93;6.05;;;;;;;5.93;84.63;99467.73;1700400;82;22968;-80
2022/01/04 04:28:19;;;;;;;17.42;6.95;;;;;;;5.97;84.65;99470.03;1650164;86;21107;-81
2022/01/04 04:30:46;;;;;;;17.60;5.75;;;;;;;5.90;84.55;99455.02;1650637;86;21086;-81
2022/01/04 04:33:12;;;;;;;15.15;6.17;;;;;;;5.99;84.50;99466.59;1689002;83;21097;-80
2022/01/04 04:35:41;;;;;;;16.52;5.72;;;;;;;6.01;84.50;99470.12;1688292;84;21392;-81
2022/01/04 04:38:10;;;;;;;17.67;5.85;;;;;;;6.05;84.55;99465.84;1688898;83;21838;-80
2022/01/04 04:40:36;;;;;;;15.20;5.62;;;;;;;6.05;84.40;99464.98;1688950;83;21564;-81
2022/01/04 04:43:03;;;;;;;12.93;5.75;;;;;;;6.06;84.43;99462.38;1688916;83;21627;-81
2022/01/04 04:45:30;;;;;;;15.03;6.08;;;;;;;6.09;84.47;99466.80;1688991;83;21667;-82
2022/01/04 04:47:56;;;;;;;16.20;6.95;;;;;;;6.07;84.46;99460.66;1688897;84;21587;-81
2022/01/04 04:50:23;;;;;;;17.92;6.10;;;;;;;6.15;84.54;99461.70;1689007;83;21741;-80
2022/01/04 04:52:53;;;;;;;16.93;6.47;;;;;;;6.15;84.45;99457.35;1666914;84;21089;-80
2022/01/04 04:55:19;;;;;;;17.40;6.65;;;;;;;6.18;84.46;99459.17;1708438;83;21122;-80
2022/01/04 04:57:45;;;;;;;16.10;6.85;;;;;;;6.17;84.42;99453.04;1709312;83;21274;-80
2022/01/04 05:00:13;;;;;;;22.17;5.78;;;;;;;6.20;84.46;99448.33;1709617;83;21111;-80
2022/01/04 05:02:40;;;;;;;15.43;6.45;;;;;;;6.21;84.42;99447.45;1709216;83;21761;-79
2022/01/04 05:05:10;;;;;;;16.95;6.47;;;;;;;6.22;84.43;99448.80;1708529;83;21105;-79
2022/01/04 05:07:38;;;;;;;20.85;6.45;;;;;;;6.23;84.47;99443.14;1709714;82;21089;-85
2022/01/04 05:10:07;;;;;;;18.02;7.20;;;;;;;6.27;84.46;99445.40;1711644;83;21109;-88
2022/01/04 05:12:35;;;;;;;23.02;7.65;;;;;;;6.30;84.44;99434.59;1731977;82;21061;-78
2022/01/04 05:15:16;;;;;;;27.13;8.03;;;;;;;6.29;84.26;99433.24;1710066;83;22650;-90
2022/01/04 05:17:43;;;;;;;23.12;8.58;;;;;;;6.29;84.33;99429.33;1710667;83;21059;-80
2022/01/04 05:20:10;;;;;;;26.12;10.78;;;;;;;6.31;84.25;99422.43;1710463;83;21093;-88
2022/01/04 05:22:37;;;;;;;25.62;12.28;;;;;;;6.29;84.19;99426.31;1711235;83;21117;-89
2022/01/04 05:25:05;;;;;;;29.63;11.30;;;;;;;6.30;84.20;99420.66;1711339;83;21097;-87
2022/01/04 05:27:37;;;;;;;24.80;9.40;;;;;;;6.29;84.18;99424.09;1699577;82;23123;-85
2022/01/04 05:30:09;;;;;;;;;;;;;;;6.29;84.23;99423.70;1707322;83;21071;-84
2022/01/04 05:32:35;;;;;;;22.32;7.97;;;;;;;6.31;84.19;99420.69;1712838;83;20145;-85
2022/01/04 05:35:09;;;;;;;18.98;7.47;;;;;;;6.35;84.26;99421.20;1712446;83;21592;-87
2022/01/04 05:37:38;;;;;;;25.17;7.62;;;;;;;6.40;84.29;99427.81;1663642;85;21113;-85
2022/01/04 05:40:06;;;;;;;26.12;7.12;;;;;;;6.46;84.25;99420.52;1681992;84;21743;-75
2022/01/04 05:42:34;;;;;;;22.17;7.00;;;;;;;6.49;84.17;99421.91;1680881;84;38347;-82
2022/01/04 17:01:55;;;;;;;141.53;57.23;;;;;;;6.86;82.20;98812.80;1674435;84;21132;-81
2022/01/04 17:04:25;;;;;;;132.43;56.28;;;;;;;6.89;82.16;98802.38;1685690;84;21100;-80
2022/01/04 17:06:52;;;;;;;76.47;36.93;;;;;;;6.89;82.11;98796.23;1674294;85;21599;-82
2022/01/04 17:09:22;;;;;;;110.97;46.75;;;;;;;6.90;82.06;98794.95;1674325;85;21100;-80
2022/01/04 17:11:55;;;;;;;103.47;44.08;;;;;;;6.86;82.10;98782.72;1673821;84;21377;-79
2022/01/04 17:17:01;;;;;;;58.42;28.77;;;;;;;6.87;82.01;98783.18;1673737;85;21097;-80
2022/01/04 17:19:28;;;;;;;51.00;30.43;;;;;;;6.87;82.03;98787.51;1673904;85;21175;-78
2022/01/04 17:21:55;;;;;;;50.52;29.35;;;;;;;6.88;82.11;98791.45;1674198;85;21069;-80
2022/01/04 17:24:21;;;;;;;44.08;27.42;;;;;;;6.88;82.14;98784.05;1674074;85;21753;-79
2022/01/04 17:26:49;;;;;;;55.48;31.62;;;;;;;6.89;82.17;98781.45;1674024;85;21111;-79
2022/01/04 17:29:16;;;;;;;44.80;26.40;;;;;;;6.91;82.16;98779.72;1654725;85;21590;-80
2022/01/04 17:31:43;;;;;;;41.08;24.95;;;;;;;6.92;82.13;98774.05;1674051;85;21070;-79
2022/01/04 17:34:10;;;;;;;42.35;24.87;;;;;;;6.93;82.11;98773.20;1674052;85;21183;-80
2022/01/04 17:36:36;;;;;;;39.40;23.87;;;;;;;6.94;82.19;98770.56;1673827;85;22403;-86
2022/01/04 17:39:03;;;;;;;43.75;25.88;;;;;;;6.95;82.15;98763.63;1674182;85;21073;-88
2022/01/04 17:41:31;;;;;;;48.78;29.32;;;;;;;6.96;82.03;98765.35;1674011;85;21094;-87
2022/01/04 17:43:59;;;;;;;47.70;27.95;;;;;;;6.94;82.01;98766.64;1674079;85;21062;-86
2022/01/04 17:46:26;;;;;;;49.48;27.50;;;;;;;6.91;82.01;98761.85;1673925;85;21042;-89
2022/01/04 17:48:52;;;;;;;52.73;30.17;;;;;;;6.87;81.99;98760.95;1674414;85;21825;-85
2022/01/04 17:51:19;;;;;;;43.20;27.75;;;;;;;6.83;81.86;98759.59;1673597;84;21633;-80
2022/01/04 17:53:46;;;;;;;34.33;23.47;;;;;;;6.75;81.81;98752.98;1674231;85;21101;-82
2022/01/04 17:56:12;;;;;;;37.00;24.35;;;;;;;6.68;81.81;98748.56;1670237;84;21074;-80
2022/01/04 17:58:39;;;;;;;43.38;27.00;;;;;;;6.63;81.84;98743.76;1667640;85;21082;-80
2022/01/04 18:01:07;;;;;;;44.83;26.77;;;;;;;6.58;81.94;98742.39;1667540;85;21763;-80
2022/01/04 18:03:34;;;;;;;38.33;25.25;;;;;;;6.54;82.06;98731.47;1667278;85;21090;-80
2022/01/04 18:06:01;;;;;;;44.90;25.88;;;;;;;6.52;82.11;98730.14;1667637;84;21672;-79
2022/01/04 18:08:27;;;;;;;45.63;26.95;;;;;;;6.50;82.09;98730.56;1673491;84;21052;-79
2022/01/04 18:10:54;;;;;;;42.65;27.10;;;;;;;6.48;82.19;98731.42;1673925;85;21131;-79
2022/01/04 18:13:21;;;;;;;41.68;27.05;;;;;;;6.44;82.19;98731.83;1678975;84;21770;-88
2022/01/04 18:15:48;;;;;;;45.03;28.62;;;;;;;6.40;82.21;98727.41;1694014;84;21733;-89
2022/01/04 18:18:14;;;;;;;42.20;28.05;;;;;;;6.39;82.33;98732.20;1694712;83;21049;-90
2022/01/04 18:20:41;;;;;;;48.25;28.23;;;;;;;6.33;82.32;98732.16;1694200;84;21069;-89
2022/01/04 18:25:34;;;;;;;42.88;27.85;;;;;;;6.31;82.42;98726.05;1831266;77;22727;-82
2022/01/04 18:28:01;;;;;;;45.58;26.07;;;;;;;6.26;82.56;98724.67;1789718;80;20995;-82
2022/01/04 18:30:29;;;;;;;35.35;23.95;;;;;;;6.27;82.71;98729.06;1789850;80;21750;-82
2022/01/04 18:32:56;;;;;;;34.83;22.58;;;;;;;6.29;82.80;98726.03;1754821;81;21117;-82
2022/01/04 18:35:23;;;;;;;31.30;22.70;;;;;;;6.32;82.90;98723.86;1744190;81;21121;-82
2022/01/04 18:37:49;;;;;;;40.58;24.60;;;;;;;6.37;82.99;98724.79;1744186;82;21082;-80
2022/01/04 18:40:16;;;;;;;40.85;24.85;;;;;;;6.42;83.06;98725.27;1744398;82;21161;-81
2022/01/04 18:42:43;;;;;;;37.90;25.32;;;;;;;6.48;83.14;98720.97;1743954;82;21753;-82
2022/01/04 18:45:15;;;;;;;46.30;31.00;;;;;;;6.54;83.12;98719.27;1743844;82;21125;-83
2022/01/04 18:47:40;;;;;;;39.90;25.15;;;;;;;6.58;83.04;98724.96;1743158;82;21074;-83
2022/01/04 18:50:07;;;;;;;41.90;26.27;;;;;;;6.59;82.96;98728.03;1743848;81;21078;-81
2022/01/04 18:52:34;;;;;;;43.58;26.30;;;;;;;6.63;82.98;98731.55;1743894;82;21563;-83
2022/01/04 18:55:01;;;;;;;34.65;24.72;;;;;;;6.67;82.97;98733.33;1743773;82;21739;-83
2022/01/04 18:57:29;;;;;;;37.42;26.07;;;;;;;6.70;82.93;98726.83;1743721;82;21156;-84
2022/01/04 18:59:56;;;;;;;34.13;23.62;;;;;;;6.71;82.80;98727.25;1743970;81;21082;-82
2022/01/04 19:02:23;;;;;;;35.50;23.57;;;;;;;6.71;82.81;98724.64;1744039;82;21421;-76
2022/01/04 19:04:49;;;;;;;41.63;25.60;;;;;;;6.72;82.78;98729.02;1743368;82;21687;-79
2022/01/04 19:07:16;;;;;;;44.90;27.67;;;;;;;6.73;82.72;98731.19;1743454;82;21923;-77
2022/01/04 19:09:43;;;;;;;47.38;26.97;;;;;;;6.72;82.69;98737.27;1743195;82;21336;-77
2022/01/04 19:12:11;;;;;;;49.08;28.17;;;;;;;6.71;82.67;98733.78;1743215;82;21111;-77
2022/01/04 19:14:37;;;;;;;44.05;27.22;;;;;;;6.71;82.68;98731.61;1743587;82;21079;-78
2022/01/04 19:17:04;;;;;;;49.03;28.65;;;;;;;6.71;82.60;98727.69;1743755;82;21082;-77
2022/01/04 19:19:31;;;;;;;50.75;28.60;;;;;;;6.71;82.65;98729.00;1743231;82;21812;-75
2022/01/04 19:21:58;;;;;;;57.83;32.20;;;;;;;6.70;82.63;98723.31;1743681;82;21573;-84
2022/01/04 19:24:24;;;;;;;62.65;34.70;;;;;;;6.72;82.66;98729.42;1743639;81;21118;-84
2022/01/04 19:26:53;;;;;;;55.30;34.58;;;;;;;6.72;82.66;98726.41;1743662;81;21624;-80
2022/01/04 19:29:20;;;;;;;51.42;31.85;;;;;;;6.70;82.53;98725.92;1743424;82;21070;-80
2022/01/04 19:31:49;;;;;;;36.73;25.75;;;;;;;6.71;82.61;98726.38;1743855;82;22575;-85
2022/01/04 19:37:02;;;;;;;28.85;19.67;;;;;;;6.73;82.62;98725.95;1750704;81;21097;-81
2022/01/04 19:39:32;;;;;;;28.40;18.50;;;;;;;6.71;82.61;98723.33;1758917;79;21482;-81
2022/01/04 19:42:00;;;;;;;28.07;17.80;;;;;;;6.71;82.63;98719.41;1764266;81;21089;-81
2022/01/04 19:44:27;;;;;;;27.37;17.80;;;;;;;6.74;82.71;98711.59;1764334;81;21744;-82
2022/01/04 19:46:56;;;;;;;24.35;17.17;;;;;;;6.74;82.62;98712.03;1764354;81;21062;-84
2022/01/04 19:49:24;;;;;;;25.97;17.65;;;;;;;6.74;82.64;98717.27;1764356;81;21093;-81
2022/01/04 19:51:50;;;;;;;24.47;16.82;;;;;;;6.74;82.65;98715.52;1764573;81;21519;-81
2022/01/04 19:54:17;;;;;;;22.75;16.48;;;;;;;6.71;82.47;98708.95;1764710;79;21085;-82
2022/01/04 19:56:44;;;;;;;28.32;17.92;;;;;;;6.64;82.46;98703.66;1764713;81;21716;-81
2022/01/04 19:59:13;;;;;;;22.75;16.42;;;;;;;6.61;82.50;98705.39;1764480;80;21124;-82
2022/01/04 20:01:40;;;;;;;24.35;17.48;;;;;;;6.60;82.50;98704.06;1764520;81;21096;-83
2022/01/04 20:04:08;;;;;;;24.07;15.72;;;;;;;6.58;82.55;98704.48;1764419;81;21080;-83
2022/01/04 20:06:37;;;;;;;24.23;16.40;;;;;;;6.54;82.60;98703.59;1764492;80;21093;-82
2022/01/04 20:09:04;;;;;;;22.45;16.42;;;;;;;6.52;82.57;98704.01;1764692;80;21888;-82
2022/01/04 20:11:30;;;;;;;19.52;15.72;;;;;;;6.49;82.59;98708.33;1764421;81;21150;-82
2022/01/04 20:13:57;;;;;;;22.60;16.07;;;;;;;6.45;82.64;98707.42;1764159;81;21602;-78
2022/01/04 20:16:25;;;;;;;25.85;17.98;;;;;;;6.43;82.65;98705.23;1729615;82;21189;-79
2022/01/04 20:18:53;;;;;;;23.77;16.82;;;;;;;6.40;82.68;98702.17;1742438;82;21062;-79
2022/01/04 20:21:34;;;;;;;25.45;16.80;;;;;;;6.39;82.71;98704.33;1742728;82;21758;-78
2022/01/04 20:24:01;;;;;;;26.27;17.32;;;;;;;6.37;82.78;98696.91;1714545;82;21691;-77
2022/01/04 20:26:29;;;;;;;20.17;15.83;;;;;;;6.36;82.72;98702.12;1742774;81;21707;-78
2022/01/04 20:28:57;;;;;;;22.07;15.70;;;;;;;6.33;82.81;98702.98;1742168;82;21563;-78
2022/01/04 20:31:23;;;;;;;23.32;15.63;;;;;;;6.33;82.84;98709.95;1743216;82;21098;-81
2022/01/04 20:33:53;;;;;;;20.57;14.50;;;;;;;6.34;82.88;98711.68;1742893;82;21861;-82
2022/01/04 20:36:24;;;;;;;21.45;14.90;;;;;;;6.34;82.97;98702.54;1688499;82;21082;-82
2022/01/04 20:38:51;;;;;;;30.48;20.45;;;;;;;6.32;82.88;98711.66;1713096;82;21063;-81
2022/01/04 20:41:18;;;;;;;38.13;24.40;;;;;;;6.29;82.94;98709.04;1743044;82;22214;-81
2022/01/04 20:43:48;;;;;;;33.67;22.05;;;;;;;6.28;83.01;98706.41;1742710;81;21102;-81
2022/01/04 20:46:14;;;;;;;33.58;22.75;;;;;;;6.31;83.08;98707.75;1742682;82;21768;-82
2022/01/04 20:48:43;;;;;;;40.95;29.87;;;;;;;6.33;83.16;98699.50;1742828;82;21090;-82
2022/01/04 20:51:14;;;;;;;32.98;22.48;;;;;;;6.34;83.17;98697.31;1742510;82;21203;-81
2022/01/04 20:53:44;;;;;;;30.70;21.37;;;;;;;6.34;83.15;98691.64;1741723;81;21130;-81
2022/01/04 20:56:10;;;;;;;26.95;18.75;;;;;;;6.34;83.14;98696.00;1742715;81;21156;-81
2022/01/04 20:58:38;;;;;;;24.92;18.25;;;;;;;6.33;83.20;98688.61;1742504;82;21879;-81
2022/01/04 21:01:08;;;;;;;27.58;19.32;;;;;;;6.36;83.31;98691.66;1742684;82;21062;-82
2022/01/04 21:03:39;;;;;;;26.77;19.12;;;;;;;6.38;83.31;98688.63;1742923;82;22374;-82
2022/01/04 21:06:05;;;;;;;26.05;17.40;;;;;;;6.38;83.36;98683.41;1742611;82;21043;-82
2022/01/04 21:08:33;;;;;;;24.95;17.70;;;;;;;6.38;83.32;98678.18;1742889;82;21078;-82
2022/01/04 21:11:00;;;;;;;23.50;16.95;;;;;;;6.38;83.42;98677.77;1742423;82;22550;-82
2022/01/04 21:13:27;;;;;;;26.20;16.57;;;;;;;6.40;83.56;98679.06;1742645;82;21074;-82
2022/01/04 21:16:18;;;;;;;24.15;16.37;;;;;;;6.46;83.63;98672.60;1743088;82;21067;-77
2022/01/04 21:18:50;;;;;;;26.43;18.77;;;;;;;6.51;83.65;98673.49;1741613;82;21090;-78
2022/01/04 21:21:23;;;;;;;21.23;15.68;;;;;;;6.49;83.57;98664.77;1742593;81;21102;-78
2022/01/04 21:23:50;;;;;;;22.15;16.27;;;;;;;6.50;83.65;98665.23;1714074;82;22576;-76
2022/01/04 21:26:18;;;;;;;23.50;16.48;;;;;;;6.49;83.56;98666.07;1756838;80;21085;-78
2022/01/04 21:28:45;;;;;;;23.67;14.83;;;;;;;6.51;83.73;98656.50;1728364;81;21083;-78
2022/01/04 21:31:14;;;;;;;19.07;14.35;;;;;;;6.54;83.74;98660.90;1758663;81;21112;-77
2022/01/04 21:33:41;;;;;;;20.08;14.38;;;;;;;6.55;83.74;98656.09;1758887;81;21653;-78
2022/01/04 21:36:08;;;;;;;16.45;13.03;;;;;;;6.55;83.68;98651.77;1758715;81;21722;-77
2022/01/04 21:38:34;;;;;;;20.08;13.95;;;;;;;6.57;83.72;98655.70;1758936;81;21606;-77
2022/01/04 21:41:01;;;;;;;19.32;13.62;;;;;;;6.60;83.79;98660.94;1759472;81;21116;-77
2022/01/04 21:43:29;;;;;;;18.67;13.60;;;;;;;6.66;83.80;98656.19;1759253;81;21070;-77
2022/01/04 21:45:57;;;;;;;16.77;13.20;;;;;;;6.68;83.76;98659.27;1759059;81;21116;-77
2022/01/04 21:48:26;;;;;;;21.93;13.62;;;;;;;6.69;83.72;98662.31;1758267;80;21625;-77
2022/01/04 21:51:13;;;;;;;18.15;12.98;;;;;;;6.72;83.69;98664.95;1759086;81;21142;-78
2022/01/04 21:54:17;;;;;;;18.12;12.23;;;;;;;6.73;83.71;98666.69;1758588;81;21040;-77
2022/01/04 21:56:31;;;;;;;17.17;12.70;;;;;;;6.77;83.72;98674.98;1748686;81;21162;-77
2022/01/04 21:59:00;;;;;;;20.75;12.55;;;;;;;6.81;83.69;98685.04;1758856;80;21065;-77
2022/01/04 22:01:28;;;;;;;21.97;13.48;;;;;;;6.84;83.69;98686.38;1759292;81;22861;-77
2022/01/04 22:03:59;;;;;;;19.95;11.43;;;;;;;6.81;83.57;98687.25;1730847;81;21453;-77
2022/01/04 22:06:24;;;;;;;18.67;12.23;;;;;;;6.86;83.54;98692.50;1757991;81;21133;-77
2022/01/04 22:08:51;;;;;;;14.25;9.68;;;;;;;6.85;83.53;98695.99;1759094;81;21045;-76
2022/01/04 22:11:18;;;;;;;11.65;8.43;;;;;;;6.88;83.53;98691.20;1739735;82;21094;-76
2022/01/04 22:13:44;;;;;;;11.10;7.92;;;;;;;6.88;83.48;98691.20;1728493;82;22573;-76
2022/01/04 22:16:11;;;;;;;10.65;7.30;;;;;;;6.89;83.43;98697.76;1728748;82;21116;-76
2022/01/04 22:18:38;;;;;;;12.10;8.00;;;;;;;6.91;83.43;98696.47;1728989;82;21058;-76
2022/01/04 22:21:04;;;;;;;9.95;6.55;;;;;;;6.86;83.45;98694.25;1729146;82;21520;-78
2022/01/04 22:23:31;;;;;;;6.12;5.22;;;;;;;6.97;83.43;98706.96;1728947;82;21081;-78
2022/01/04 22:25:58;;;;;;;5.92;4.30;;;;;;;6.99;83.20;98718.30;1728957;82;21780;-78
2022/01/04 22:28:27;;;;;;;5.67;3.83;;;;;;;7.04;83.02;98735.33;1728634;82;21060;-78
2022/01/04 22:30:54;;;;;;;4.58;3.40;;;;;;;7.05;82.44;98737.09;1728446;82;21045;-77
2022/01/04 22:33:22;;;;;;;5.83;3.17;;;;;;;7.04;82.07;98744.07;1728806;82;21586;-78
2022/01/04 22:35:50;;;;;;;5.10;2.90;;;;;;;7.01;81.75;98754.06;1728832;82;21081;-79
2022/01/04 22:38:21;;;;;;;6.75;2.70;;;;;;;6.96;81.43;98745.33;1728877;82;21771;-78
2022/01/04 22:40:48;;;;;;;7.95;6.12;;;;;;;6.86;80.99;98758.31;1728920;82;21068;-78
2022/01/04 22:43:15;;;;;;;3.80;2.40;;;;;;;6.65;80.52;98755.97;1728831;82;21218;-78
2022/01/04 22:45:44;;;;;;;4.05;1.92;;;;;;;6.44;80.06;98767.11;1728766;82;21080;-79
2022/01/04 22:48:11;;;;;;;2.25;2.00;;;;;;;6.26;79.84;98777.37;1728468;82;20982;-78
2022/01/04 22:50:40;;;;;;;2.25;1.57;;;;;;;6.14;79.92;98777.69;1727833;82;21057;-78
2022/01/04 22:53:07;;;;;;;1.72;1.40;;;;;;;6.09;79.95;98791.12;1728880;81;21632;-79
2022/01/04 22:55:35;;;;;;;3.20;1.42;;;;;;;6.05;79.86;98802.83;1728717;82;21072;-79
2022/01/04 22:58:05;;;;;;;3.27;1.50;;;;;;;5.91;79.75;98789.15;1728948;82;21141;-78
2022/01/04 23:00:31;;;;;;;2.95;2.60;;;;;;;5.95;79.60;98804.02;1728779;81;21070;-79